sensor_id;sensor_type;location;lat;lon;timestamp;P1;durP1;ratioP1;P2;durP2;ratioP2
3997;SDS011;61314;53.444;9.902;2023-03-01T00:01:40;7.30;;;3.67;;
3997;SDS011;61314;53.444;9.902;2023-03-01T00:04:07;2.70;;;2.45;;
3997;SDS011;61314;53.444;9.902;2023-03-01T00:06:34;2.50;;;1.90;;
3997;SDS011;61314;53.444;9.902;2023-03-01T00:09:01;4.32;;;2.35;;
3997;SDS011;61314;53.444;9.902;2023-03-01T00:11:29;3.58;;;2.20;;
3997;SDS011;61314;53.444;9.902;2023-03-01T00:13:57;4.63;;;1.90;;
3997;SDS011;61314;53.444;9.902;2023-03-01T00:16:28;2.85;;;2.00;;
3997;SDS011;61314;53.444;9.902;2023-03-01T00:18:56;3.35;;;2.03;;
3997;SDS011;61314;53.444;9.902;2023-03-01T00:21:24;2.95;;;2.65;;
3997;SDS011;61314;53.444;9.902;2023-03-01T00:23:51;3.72;;;1.50;;
3997;SDS011;61314;53.444;9.902;2023-03-01T00:26:19;1.65;;;1.55;;
3997;SDS011;61314;53.444;9.902;2023-03-01T00:28:46;2.05;;;1.67;;
3997;SDS011;61314;53.444;9.902;2023-03-01T00:31:15;1.88;;;1.63;;
3997;SDS011;61314;53.444;9.902;2023-03-01T00:33:42;2.10;;;1.90;;
3997;SDS011;61314;53.444;9.902;2023-03-01T00:36:10;1.67;;;1.58;;
3997;SDS011;61314;53.444;9.902;2023-03-01T00:38:42;2.17;;;2.05;;
3997;SDS011;61314;53.444;9.902;2023-03-01T00:41:10;2.42;;;2.22;;
3997;SDS011;61314;53.444;9.902;2023-03-01T00:43:37;6.32;;;1.67;;
3997;SDS011;61314;53.444;9.902;2023-03-01T00:46:05;3.08;;;2.17;;
3997;SDS011;61314;53.444;9.902;2023-03-01T00:48:33;2.97;;;1.80;;
3997;SDS011;61314;53.444;9.902;2023-03-01T00:53:33;1.90;;;1.80;;
3997;SDS011;61314;53.444;9.902;2023-03-01T00:56:01;2.28;;;1.85;;
3997;SDS011;61314;53.444;9.902;2023-03-01T00:58:28;3.83;;;1.65;;
3997;SDS011;61314;53.444;9.902;2023-03-01T01:00:55;1.90;;;1.63;;
3997;SDS011;61314;53.444;9.902;2023-03-01T01:03:22;2.10;;;1.92;;
3997;SDS011;61314;53.444;9.902;2023-03-01T01:05:51;2.75;;;1.77;;
3997;SDS011;61314;53.444;9.902;2023-03-01T01:08:18;2.17;;;1.58;;
3997;SDS011;61314;53.444;9.902;2023-03-01T01:10:46;3.83;;;1.80;;
3997;SDS011;61314;53.444;9.902;2023-03-01T01:13:13;1.75;;;1.65;;
3997;SDS011;61314;53.444;9.902;2023-03-01T01:15:40;1.67;;;1.58;;
3997;SDS011;61314;53.444;9.902;2023-03-01T01:18:08;4.05;;;2.00;;
3997;SDS011;61314;53.444;9.902;2023-03-01T01:20:35;1.95;;;1.85;;
3997;SDS011;61314;53.444;9.902;2023-03-01T01:23:04;2.55;;;1.55;;
3997;SDS011;61314;53.444;9.902;2023-03-01T01:25:34;2.78;;;2.40;;
3997;SDS011;61314;53.444;9.902;2023-03-01T01:28:01;2.53;;;1.83;;
3997;SDS011;61314;53.444;9.902;2023-03-01T01:30:28;3.25;;;2.40;;
3997;SDS011;61314;53.444;9.902;2023-03-01T01:32:55;2.00;;;1.90;;
3997;SDS011;61314;53.444;9.902;2023-03-01T01:35:22;1.90;;;1.80;;
3997;SDS011;61314;53.444;9.902;2023-03-01T01:37:49;6.60;;;2.03;;
3997;SDS011;61314;53.444;9.902;2023-03-01T01:40:16;2.05;;;1.60;;
3997;SDS011;61314;53.444;9.902;2023-03-01T01:42:43;2.80;;;2.22;;
3997;SDS011;61314;53.444;9.902;2023-03-01T01:48:00;3.30;;;1.98;;
3997;SDS011;61314;53.444;9.902;2023-03-01T01:50:30;1.80;;;1.70;;
3997;SDS011;61314;53.444;9.902;2023-03-01T01:53:05;1.73;;;1.63;;
3997;SDS011;61314;53.444;9.902;2023-03-01T01:55:32;2.30;;;2.10;;
3997;SDS011;61314;53.444;9.902;2023-03-01T01:58:01;3.30;;;2.35;;
3997;SDS011;61314;53.444;9.902;2023-03-01T02:00:29;3.67;;;2.75;;
3997;SDS011;61314;53.444;9.902;2023-03-01T02:03:00;2.30;;;2.10;;
3997;SDS011;61314;53.444;9.902;2023-03-01T02:05:33;4.05;;;2.22;;
3997;SDS011;61314;53.444;9.902;2023-03-01T02:08:02;2.80;;;2.10;;
3997;SDS011;61314;53.444;9.902;2023-03-01T02:10:29;4.75;;;2.20;;
3997;SDS011;61314;53.444;9.902;2023-03-01T02:12:59;5.00;;;2.33;;
3997;SDS011;61314;53.444;9.902;2023-03-01T02:15:26;2.53;;;2.33;;
3997;SDS011;61314;53.444;9.902;2023-03-01T02:17:53;3.17;;;2.88;;
3997;SDS011;61314;53.444;9.902;2023-03-01T02:20:23;1.88;;;1.77;;
3997;SDS011;61314;53.444;9.902;2023-03-01T02:22:53;3.95;;;2.33;;
3997;SDS011;61314;53.444;9.902;2023-03-01T02:30:43;1.75;;;1.65;;
3997;SDS011;61314;53.444;9.902;2023-03-01T02:33:31;3.60;;;2.10;;
3997;SDS011;61314;53.444;9.902;2023-03-01T02:35:59;2.50;;;2.20;;
3997;SDS011;61314;53.444;9.902;2023-03-01T02:38:28;2.70;;;2.20;;
3997;SDS011;61314;53.444;9.902;2023-03-01T02:40:55;2.10;;;1.80;;
3997;SDS011;61314;53.444;9.902;2023-03-01T02:43:24;2.30;;;2.10;;
3997;SDS011;61314;53.444;9.902;2023-03-01T02:45:56;4.43;;;1.85;;
3997;SDS011;61314;53.444;9.902;2023-03-01T02:48:24;2.85;;;2.15;;
3997;SDS011;61314;53.444;9.902;2023-03-01T02:51:00;6.10;;;2.47;;
3997;SDS011;61314;53.444;9.902;2023-03-01T02:53:35;6.32;;;2.70;;
3997;SDS011;61314;53.444;9.902;2023-03-01T02:56:04;3.30;;;2.20;;
3997;SDS011;61314;53.444;9.902;2023-03-01T02:58:34;3.72;;;2.58;;
3997;SDS011;61314;53.444;9.902;2023-03-01T03:01:12;3.13;;;2.58;;
3997;SDS011;61314;53.444;9.902;2023-03-01T03:03:41;4.18;;;2.75;;
3997;SDS011;61314;53.444;9.902;2023-03-01T03:06:08;4.10;;;2.65;;
3997;SDS011;61314;53.444;9.902;2023-03-01T03:08:35;5.97;;;2.47;;
3997;SDS011;61314;53.444;9.902;2023-03-01T03:11:02;3.28;;;2.70;;
3997;SDS011;61314;53.444;9.902;2023-03-01T03:13:29;5.93;;;2.92;;
3997;SDS011;61314;53.444;9.902;2023-03-01T03:15:57;2.67;;;2.03;;
3997;SDS011;61314;53.444;9.902;2023-03-01T03:18:24;2.80;;;2.00;;
3997;SDS011;61314;53.444;9.902;2023-03-01T03:20:54;2.72;;;1.80;;
3997;SDS011;61314;53.444;9.902;2023-03-01T03:23:21;2.35;;;2.10;;
3997;SDS011;61314;53.444;9.902;2023-03-01T03:25:49;2.67;;;1.80;;
3997;SDS011;61314;53.444;9.902;2023-03-01T03:28:16;3.10;;;2.50;;
3997;SDS011;61314;53.444;9.902;2023-03-01T03:30:43;9.18;;;2.67;;
3997;SDS011;61314;53.444;9.902;2023-03-01T03:33:11;4.97;;;2.90;;
3997;SDS011;61314;53.444;9.902;2023-03-01T03:35:40;3.22;;;2.25;;
3997;SDS011;61314;53.444;9.902;2023-03-01T03:38:08;2.40;;;2.20;;
3997;SDS011;61314;53.444;9.902;2023-03-01T03:40:42;4.38;;;2.10;;
3997;SDS011;61314;53.444;9.902;2023-03-01T03:43:11;2.97;;;2.25;;
3997;SDS011;61314;53.444;9.902;2023-03-01T03:45:38;4.20;;;2.65;;
3997;SDS011;61314;53.444;9.902;2023-03-01T03:48:06;3.97;;;3.03;;
3997;SDS011;61314;53.444;9.902;2023-03-01T03:50:34;2.67;;;2.10;;
3997;SDS011;61314;53.444;9.902;2023-03-01T03:53:02;1.73;;;1.63;;
3997;SDS011;61314;53.444;9.902;2023-03-01T03:55:29;2.53;;;2.20;;
3997;SDS011;61314;53.444;9.902;2023-03-01T03:57:57;2.40;;;1.83;;
3997;SDS011;61314;53.444;9.902;2023-03-01T04:00:26;3.10;;;2.28;;
3997;SDS011;61314;53.444;9.902;2023-03-01T04:02:53;3.95;;;3.00;;
3997;SDS011;61314;53.444;9.902;2023-03-01T04:05:22;2.60;;;2.40;;
3997;SDS011;61314;53.444;9.902;2023-03-01T04:07:49;2.70;;;2.50;;
3997;SDS011;61314;53.444;9.902;2023-03-01T04:10:28;2.00;;;1.80;;
3997;SDS011;61314;53.444;9.902;2023-03-01T04:12:55;2.42;;;2.15;;
3997;SDS011;61314;53.444;9.902;2023-03-01T04:15:23;2.05;;;1.95;;
3997;SDS011;61314;53.444;9.902;2023-03-01T04:17:51;4.68;;;2.10;;
3997;SDS011;61314;53.444;9.902;2023-03-01T04:20:19;2.25;;;2.00;;
3997;SDS011;61314;53.444;9.902;2023-03-01T04:23:13;3.15;;;2.15;;
3997;SDS011;61314;53.444;9.902;2023-03-01T04:25:40;3.63;;;2.25;;
3997;SDS011;61314;53.444;9.902;2023-03-01T04:28:08;2.50;;;2.30;;
3997;SDS011;61314;53.444;9.902;2023-03-01T04:30:36;3.83;;;2.53;;
3997;SDS011;61314;53.444;9.902;2023-03-01T04:33:04;3.35;;;2.88;;
3997;SDS011;61314;53.444;9.902;2023-03-01T04:35:31;4.65;;;2.55;;
3997;SDS011;61314;53.444;9.902;2023-03-01T04:37:58;4.15;;;2.75;;
3997;SDS011;61314;53.444;9.902;2023-03-01T04:40:25;5.05;;;2.72;;
3997;SDS011;61314;53.444;9.902;2023-03-01T04:42:52;3.88;;;2.63;;
3997;SDS011;61314;53.444;9.902;2023-03-01T04:45:20;5.68;;;3.38;;
3997;SDS011;61314;53.444;9.902;2023-03-01T04:47:47;3.17;;;2.80;;
3997;SDS011;61314;53.444;9.902;2023-03-01T04:50:15;4.05;;;3.00;;
3997;SDS011;61314;53.444;9.902;2023-03-01T04:52:43;6.15;;;3.38;;
3997;SDS011;61314;53.444;9.902;2023-03-01T04:55:10;9.52;;;4.05;;
3997;SDS011;61314;53.444;9.902;2023-03-01T04:57:37;5.80;;;4.38;;
3997;SDS011;61314;53.444;9.902;2023-03-01T05:00:05;4.45;;;3.55;;
3997;SDS011;61314;53.444;9.902;2023-03-01T05:02:52;8.35;;;4.57;;
3997;SDS011;61314;53.444;9.902;2023-03-01T05:05:20;5.13;;;4.00;;
3997;SDS011;61314;53.444;9.902;2023-03-01T05:07:52;6.22;;;4.05;;
3997;SDS011;61314;53.444;9.902;2023-03-01T05:10:19;10.20;;;4.55;;
3997;SDS011;61314;53.444;9.902;2023-03-01T05:12:46;6.30;;;4.00;;
3997;SDS011;61314;53.444;9.902;2023-03-01T05:15:13;6.38;;;4.10;;
3997;SDS011;61314;53.444;9.902;2023-03-01T05:17:40;6.35;;;4.10;;
3997;SDS011;61314;53.444;9.902;2023-03-01T05:20:08;4.60;;;3.55;;
3997;SDS011;61314;53.444;9.902;2023-03-01T05:22:36;5.13;;;3.55;;
3997;SDS011;61314;53.444;9.902;2023-03-01T05:25:03;5.50;;;4.13;;
3997;SDS011;61314;53.444;9.902;2023-03-01T05:27:30;10.35;;;5.18;;
3997;SDS011;61314;53.444;9.902;2023-03-01T05:29:57;5.88;;;3.75;;
3997;SDS011;61314;53.444;9.902;2023-03-01T05:32:24;7.15;;;4.07;;
3997;SDS011;61314;53.444;9.902;2023-03-01T05:34:51;6.78;;;4.05;;
3997;SDS011;61314;53.444;9.902;2023-03-01T05:37:18;6.07;;;3.83;;
3997;SDS011;61314;53.444;9.902;2023-03-01T05:39:45;7.03;;;3.92;;
3997;SDS011;61314;53.444;9.902;2023-03-01T05:42:16;7.13;;;4.60;;
3997;SDS011;61314;53.444;9.902;2023-03-01T05:44:43;9.43;;;4.22;;
3997;SDS011;61314;53.444;9.902;2023-03-01T05:47:10;6.72;;;4.75;;
3997;SDS011;61314;53.444;9.902;2023-03-01T05:49:37;7.05;;;4.97;;
3997;SDS011;61314;53.444;9.902;2023-03-01T05:52:05;4.97;;;3.65;;
3997;SDS011;61314;53.444;9.902;2023-03-01T05:54:32;3.90;;;3.55;;
3997;SDS011;61314;53.444;9.902;2023-03-01T05:56:59;5.15;;;3.78;;
3997;SDS011;61314;53.444;9.902;2023-03-01T05:59:26;4.10;;;3.50;;
3997;SDS011;61314;53.444;9.902;2023-03-01T06:01:53;5.55;;;3.70;;
3997;SDS011;61314;53.444;9.902;2023-03-01T06:04:20;5.90;;;4.38;;
3997;SDS011;61314;53.444;9.902;2023-03-01T06:06:47;5.85;;;4.63;;
3997;SDS011;61314;53.444;9.902;2023-03-01T06:09:14;10.02;;;4.50;;
3997;SDS011;61314;53.444;9.902;2023-03-01T06:11:41;4.93;;;3.60;;
3997;SDS011;61314;53.444;9.902;2023-03-01T06:14:08;5.15;;;4.25;;
3997;SDS011;61314;53.444;9.902;2023-03-01T06:16:36;7.00;;;4.38;;
3997;SDS011;61314;53.444;9.902;2023-03-01T06:19:03;6.47;;;4.05;;
3997;SDS011;61314;53.444;9.902;2023-03-01T06:21:30;8.50;;;4.47;;
3997;SDS011;61314;53.444;9.902;2023-03-01T06:23:57;8.82;;;4.60;;
3997;SDS011;61314;53.444;9.902;2023-03-01T06:26:24;6.10;;;5.20;;
3997;SDS011;61314;53.444;9.902;2023-03-01T06:28:51;6.43;;;4.68;;
3997;SDS011;61314;53.444;9.902;2023-03-01T06:31:18;7.40;;;4.88;;
3997;SDS011;61314;53.444;9.902;2023-03-01T06:33:46;10.95;;;4.90;;
3997;SDS011;61314;53.444;9.902;2023-03-01T06:36:12;6.90;;;4.30;;
3997;SDS011;61314;53.444;9.902;2023-03-01T06:38:40;6.78;;;4.97;;
3997;SDS011;61314;53.444;9.902;2023-03-01T06:41:07;11.57;;;5.25;;
3997;SDS011;61314;53.444;9.902;2023-03-01T06:43:34;6.85;;;4.38;;
3997;SDS011;61314;53.444;9.902;2023-03-01T06:46:03;7.45;;;4.32;;
3997;SDS011;61314;53.444;9.902;2023-03-01T06:48:31;7.45;;;4.05;;
3997;SDS011;61314;53.444;9.902;2023-03-01T06:50:58;7.85;;;4.53;;
3997;SDS011;61314;53.444;9.902;2023-03-01T06:53:29;6.40;;;4.40;;
3997;SDS011;61314;53.444;9.902;2023-03-01T06:55:57;6.32;;;4.65;;
3997;SDS011;61314;53.444;9.902;2023-03-01T06:58:25;5.43;;;4.22;;
3997;SDS011;61314;53.444;9.902;2023-03-01T07:00:52;3.75;;;3.25;;
3997;SDS011;61314;53.444;9.902;2023-03-01T07:03:19;4.15;;;3.78;;
3997;SDS011;61314;53.444;9.902;2023-03-01T07:05:48;7.40;;;4.60;;
3997;SDS011;61314;53.444;9.902;2023-03-01T07:08:15;7.38;;;4.75;;
3997;SDS011;61314;53.444;9.902;2023-03-01T07:10:42;5.88;;;4.00;;
3997;SDS011;61314;53.444;9.902;2023-03-01T07:13:09;5.05;;;4.10;;
3997;SDS011;61314;53.444;9.902;2023-03-01T07:15:36;6.68;;;4.70;;
3997;SDS011;61314;53.444;9.902;2023-03-01T07:18:03;8.10;;;4.75;;
3997;SDS011;61314;53.444;9.902;2023-03-01T07:20:30;4.97;;;4.30;;
3997;SDS011;61314;53.444;9.902;2023-03-01T07:22:57;8.82;;;3.85;;
3997;SDS011;61314;53.444;9.902;2023-03-01T07:25:24;5.40;;;4.05;;
3997;SDS011;61314;53.444;9.902;2023-03-01T07:27:52;8.55;;;3.90;;
3997;SDS011;61314;53.444;9.902;2023-03-01T07:30:19;4.18;;;3.58;;
3997;SDS011;61314;53.444;9.902;2023-03-01T07:32:47;9.95;;;3.90;;
3997;SDS011;61314;53.444;9.902;2023-03-01T07:35:14;7.50;;;3.70;;
3997;SDS011;61314;53.444;9.902;2023-03-01T07:37:41;9.07;;;4.35;;
3997;SDS011;61314;53.444;9.902;2023-03-01T07:40:08;4.63;;;3.78;;
3997;SDS011;61314;53.444;9.902;2023-03-01T07:42:35;7.88;;;4.60;;
3997;SDS011;61314;53.444;9.902;2023-03-01T07:45:03;6.78;;;3.85;;
3997;SDS011;61314;53.444;9.902;2023-03-01T07:47:30;5.22;;;4.53;;
3997;SDS011;61314;53.444;9.902;2023-03-01T07:49:58;3.38;;;2.83;;
3997;SDS011;61314;53.444;9.902;2023-03-01T07:52:25;6.30;;;4.35;;
3997;SDS011;61314;53.444;9.902;2023-03-01T07:54:52;6.75;;;4.60;;
3997;SDS011;61314;53.444;9.902;2023-03-01T07:57:19;5.80;;;4.47;;
3997;SDS011;61314;53.444;9.902;2023-03-01T07:59:46;12.30;;;4.22;;
3997;SDS011;61314;53.444;9.902;2023-03-01T08:02:13;9.65;;;4.45;;
3997;SDS011;61314;53.444;9.902;2023-03-01T08:04:41;3.72;;;3.42;;
3997;SDS011;61314;53.444;9.902;2023-03-01T08:07:08;4.40;;;3.67;;
3997;SDS011;61314;53.444;9.902;2023-03-01T08:09:35;5.43;;;4.30;;
3997;SDS011;61314;53.444;9.902;2023-03-01T08:12:04;7.38;;;4.80;;
3997;SDS011;61314;53.444;9.902;2023-03-01T08:14:31;8.07;;;4.20;;
3997;SDS011;61314;53.444;9.902;2023-03-01T08:16:59;6.00;;;4.45;;
3997;SDS011;61314;53.444;9.902;2023-03-01T08:19:26;6.38;;;4.10;;
3997;SDS011;61314;53.444;9.902;2023-03-01T08:21:54;7.60;;;4.25;;
3997;SDS011;61314;53.444;9.902;2023-03-01T08:24:21;4.93;;;4.00;;
3997;SDS011;61314;53.444;9.902;2023-03-01T08:26:48;8.73;;;4.95;;
3997;SDS011;61314;53.444;9.902;2023-03-01T08:29:15;5.75;;;3.65;;
3997;SDS011;61314;53.444;9.902;2023-03-01T08:31:42;6.95;;;4.15;;
3997;SDS011;61314;53.444;9.902;2023-03-01T08:34:11;6.53;;;5.03;;
3997;SDS011;61314;53.444;9.902;2023-03-01T08:36:40;5.43;;;4.82;;
3997;SDS011;61314;53.444;9.902;2023-03-01T08:39:07;6.78;;;4.13;;
3997;SDS011;61314;53.444;9.902;2023-03-01T08:41:35;5.97;;;4.50;;
3997;SDS011;61314;53.444;9.902;2023-03-01T08:44:02;7.38;;;5.25;;
3997;SDS011;61314;53.444;9.902;2023-03-01T08:46:31;5.65;;;4.50;;
3997;SDS011;61314;53.444;9.902;2023-03-01T08:48:59;10.75;;;4.80;;
3997;SDS011;61314;53.444;9.902;2023-03-01T08:51:26;9.07;;;6.15;;
3997;SDS011;61314;53.444;9.902;2023-03-01T08:53:53;6.75;;;6.03;;
3997;SDS011;61314;53.444;9.902;2023-03-01T08:56:20;9.95;;;5.78;;
3997;SDS011;61314;53.444;9.902;2023-03-01T08:58:47;8.38;;;5.70;;
3997;SDS011;61314;53.444;9.902;2023-03-01T09:01:16;9.82;;;5.55;;
3997;SDS011;61314;53.444;9.902;2023-03-01T09:03:43;11.80;;;5.30;;
3997;SDS011;61314;53.444;9.902;2023-03-01T09:06:10;7.40;;;4.95;;
3997;SDS011;61314;53.444;9.902;2023-03-01T09:08:38;10.80;;;5.60;;
3997;SDS011;61314;53.444;9.902;2023-03-01T09:11:07;13.00;;;6.80;;
3997;SDS011;61314;53.444;9.902;2023-03-01T09:13:34;7.70;;;6.47;;
3997;SDS011;61314;53.444;9.902;2023-03-01T09:16:02;14.98;;;7.45;;
3997;SDS011;61314;53.444;9.902;2023-03-01T09:18:29;12.80;;;7.40;;
3997;SDS011;61314;53.444;9.902;2023-03-01T09:21:03;10.73;;;7.82;;
3997;SDS011;61314;53.444;9.902;2023-03-01T09:23:36;14.15;;;7.55;;
3997;SDS011;61314;53.444;9.902;2023-03-01T09:26:08;10.77;;;8.15;;
3997;SDS011;61314;53.444;9.902;2023-03-01T09:28:36;17.08;;;7.93;;
3997;SDS011;61314;53.444;9.902;2023-03-01T09:31:03;17.15;;;7.75;;
3997;SDS011;61314;53.444;9.902;2023-03-01T09:33:31;12.10;;;7.45;;
3997;SDS011;61314;53.444;9.902;2023-03-01T09:35:58;17.48;;;8.80;;
3997;SDS011;61314;53.444;9.902;2023-03-01T09:38:25;12.88;;;8.82;;
3997;SDS011;61314;53.444;9.902;2023-03-01T09:40:53;11.70;;;8.38;;
3997;SDS011;61314;53.444;9.902;2023-03-01T09:43:25;12.88;;;8.50;;
3997;SDS011;61314;53.444;9.902;2023-03-01T09:45:55;11.63;;;8.18;;
3997;SDS011;61314;53.444;9.902;2023-03-01T09:48:25;11.20;;;7.93;;
3997;SDS011;61314;53.444;9.902;2023-03-01T09:50:53;16.45;;;9.68;;
3997;SDS011;61314;53.444;9.902;2023-03-01T09:53:25;8.85;;;7.20;;
3997;SDS011;61314;53.444;9.902;2023-03-01T09:55:55;12.75;;;7.55;;
3997;SDS011;61314;53.444;9.902;2023-03-01T09:58:30;12.07;;;8.23;;
3997;SDS011;61314;53.444;9.902;2023-03-01T10:01:03;9.32;;;7.90;;
3997;SDS011;61314;53.444;9.902;2023-03-01T10:03:38;10.90;;;7.93;;
3997;SDS011;61314;53.444;9.902;2023-03-01T10:06:11;9.52;;;7.97;;
3997;SDS011;61314;53.444;9.902;2023-03-01T10:09:20;12.13;;;8.18;;
3997;SDS011;61314;53.444;9.902;2023-03-01T10:11:52;10.23;;;8.43;;
3997;SDS011;61314;53.444;9.902;2023-03-01T10:14:31;9.90;;;8.55;;
3997;SDS011;61314;53.444;9.902;2023-03-01T10:19:34;12.18;;;8.63;;
3997;SDS011;61314;53.444;9.902;2023-03-01T10:22:05;14.18;;;9.43;;
3997;SDS011;61314;53.444;9.902;2023-03-01T10:24:37;15.75;;;10.85;;
3997;SDS011;61314;53.444;9.902;2023-03-01T10:27:09;10.55;;;7.40;;
3997;SDS011;61314;53.444;9.902;2023-03-01T10:29:40;14.57;;;9.38;;
3997;SDS011;61314;53.444;9.902;2023-03-01T10:32:11;11.18;;;8.80;;
3997;SDS011;61314;53.444;9.902;2023-03-01T10:34:38;16.58;;;9.70;;
3997;SDS011;61314;53.444;9.902;2023-03-01T10:37:09;12.55;;;9.75;;
3997;SDS011;61314;53.444;9.902;2023-03-01T10:39:37;15.73;;;9.40;;
3997;SDS011;61314;53.444;9.902;2023-03-01T10:42:05;16.15;;;10.85;;
3997;SDS011;61314;53.444;9.902;2023-03-01T10:47:13;17.52;;;11.50;;
3997;SDS011;61314;53.444;9.902;2023-03-01T10:49:49;15.43;;;11.07;;
3997;SDS011;61314;53.444;9.902;2023-03-01T10:52:18;17.38;;;11.95;;
3997;SDS011;61314;53.444;9.902;2023-03-01T10:54:53;18.10;;;11.20;;
3997;SDS011;61314;53.444;9.902;2023-03-01T10:57:27;20.73;;;11.95;;
3997;SDS011;61314;53.444;9.902;2023-03-01T11:00:14;17.95;;;12.13;;
3997;SDS011;61314;53.444;9.902;2023-03-01T11:02:45;20.45;;;14.13;;
3997;SDS011;61314;53.444;9.902;2023-03-01T11:08:00;18.20;;;11.88;;
3997;SDS011;61314;53.444;9.902;2023-03-01T11:10:29;19.70;;;12.90;;
3997;SDS011;61314;53.444;9.902;2023-03-01T11:13:16;19.60;;;12.25;;
3997;SDS011;61314;53.444;9.902;2023-03-01T11:15:57;13.73;;;10.68;;
3997;SDS011;61314;53.444;9.902;2023-03-01T11:18:25;17.17;;;10.90;;
3997;SDS011;61314;53.444;9.902;2023-03-01T11:21:11;21.20;;;13.23;;
3997;SDS011;61314;53.444;9.902;2023-03-01T11:23:38;12.02;;;10.50;;
3997;SDS011;61314;53.444;9.902;2023-03-01T11:26:07;18.77;;;11.55;;
3997;SDS011;61314;53.444;9.902;2023-03-01T11:28:38;19.15;;;11.93;;
3997;SDS011;61314;53.444;9.902;2023-03-01T11:31:07;17.80;;;13.15;;
3997;SDS011;61314;53.444;9.902;2023-03-01T11:33:47;18.50;;;13.07;;
3997;SDS011;61314;53.444;9.902;2023-03-01T11:42:11;18.48;;;13.88;;
3997;SDS011;61314;53.444;9.902;2023-03-01T11:44:44;19.70;;;13.65;;
3997;SDS011;61314;53.444;9.902;2023-03-01T11:47:19;18.95;;;13.80;;
3997;SDS011;61314;53.444;9.902;2023-03-01T11:50:01;19.83;;;15.13;;
3997;SDS011;61314;53.444;9.902;2023-03-01T12:05:53;14.68;;;11.65;;
3997;SDS011;61314;53.444;9.902;2023-03-01T12:08:37;15.63;;;11.50;;
3997;SDS011;61314;53.444;9.902;2023-03-01T12:13:50;17.75;;;10.75;;
3997;SDS011;61314;53.444;9.902;2023-03-01T12:27:09;13.65;;;9.35;;
3997;SDS011;61314;53.444;9.902;2023-03-01T12:29:43;12.98;;;9.95;;
3997;SDS011;61314;53.444;9.902;2023-03-01T12:40:16;13.93;;;9.27;;
3997;SDS011;61314;53.444;9.902;2023-03-01T12:50:52;15.07;;;10.60;;
3997;SDS011;61314;53.444;9.902;2023-03-01T12:53:29;10.43;;;9.30;;
3997;SDS011;61314;53.444;9.902;2023-03-01T12:56:11;12.57;;;8.77;;
3997;SDS011;61314;53.444;9.902;2023-03-01T13:01:19;12.68;;;8.73;;
3997;SDS011;61314;53.444;9.902;2023-03-01T13:06:16;11.10;;;8.32;;
3997;SDS011;61314;53.444;9.902;2023-03-01T13:08:59;13.75;;;9.20;;
3997;SDS011;61314;53.444;9.902;2023-03-01T13:11:31;10.02;;;8.30;;
3997;SDS011;61314;53.444;9.902;2023-03-01T13:16:44;17.58;;;9.93;;
3997;SDS011;61314;53.444;9.902;2023-03-01T13:19:21;14.63;;;10.20;;
3997;SDS011;61314;53.444;9.902;2023-03-01T13:21:50;14.10;;;9.38;;
3997;SDS011;61314;53.444;9.902;2023-03-01T13:24:24;11.98;;;8.63;;
3997;SDS011;61314;53.444;9.902;2023-03-01T13:29:43;13.65;;;9.90;;
3997;SDS011;61314;53.444;9.902;2023-03-01T13:37:46;18.88;;;10.70;;
3997;SDS011;61314;53.444;9.902;2023-03-01T13:42:47;18.23;;;9.30;;
3997;SDS011;61314;53.444;9.902;2023-03-01T13:45:34;13.07;;;9.55;;
3997;SDS011;61314;53.444;9.902;2023-03-01T13:48:04;13.57;;;8.55;;
3997;SDS011;61314;53.444;9.902;2023-03-01T13:50:43;12.85;;;9.00;;
3997;SDS011;61314;53.444;9.902;2023-03-01T13:53:14;12.63;;;8.27;;
3997;SDS011;61314;53.444;9.902;2023-03-01T13:55:44;15.00;;;8.98;;
3997;SDS011;61314;53.444;9.902;2023-03-01T13:58:25;18.17;;;9.77;;
3997;SDS011;61314;53.444;9.902;2023-03-01T14:01:05;19.15;;;10.65;;
3997;SDS011;61314;53.444;9.902;2023-03-01T14:03:34;16.55;;;9.80;;
3997;SDS011;61314;53.444;9.902;2023-03-01T14:06:14;21.00;;;9.15;;
3997;SDS011;61314;53.444;9.902;2023-03-01T14:08:47;15.68;;;9.95;;
3997;SDS011;61314;53.444;9.902;2023-03-01T14:11:31;15.18;;;9.60;;
3997;SDS011;61314;53.444;9.902;2023-03-01T14:16:37;16.40;;;10.48;;
3997;SDS011;61314;53.444;9.902;2023-03-01T14:19:12;19.65;;;11.02;;
3997;SDS011;61314;53.444;9.902;2023-03-01T14:24:47;16.23;;;10.38;;
3997;SDS011;61314;53.444;9.902;2023-03-01T14:27:15;18.67;;;11.50;;
3997;SDS011;61314;53.444;9.902;2023-03-01T14:29:43;15.27;;;10.00;;
3997;SDS011;61314;53.444;9.902;2023-03-01T14:34:48;15.40;;;11.38;;
3997;SDS011;61314;53.444;9.902;2023-03-01T14:37:17;23.08;;;13.45;;
3997;SDS011;61314;53.444;9.902;2023-03-01T14:39:46;18.02;;;11.43;;
3997;SDS011;61314;53.444;9.902;2023-03-01T14:42:13;18.35;;;12.05;;
3997;SDS011;61314;53.444;9.902;2023-03-01T14:44:44;17.88;;;11.35;;
3997;SDS011;61314;53.444;9.902;2023-03-01T14:47:14;18.27;;;12.88;;
3997;SDS011;61314;53.444;9.902;2023-03-01T14:49:42;19.02;;;12.65;;
3997;SDS011;61314;53.444;9.902;2023-03-01T14:52:18;18.85;;;12.90;;
3997;SDS011;61314;53.444;9.902;2023-03-01T14:54:46;21.52;;;12.05;;
3997;SDS011;61314;53.444;9.902;2023-03-01T14:57:21;18.42;;;11.57;;
3997;SDS011;61314;53.444;9.902;2023-03-01T14:59:49;20.30;;;11.73;;
3997;SDS011;61314;53.444;9.902;2023-03-01T15:02:19;20.30;;;12.85;;
3997;SDS011;61314;53.444;9.902;2023-03-01T15:05:05;25.85;;;14.10;;
3997;SDS011;61314;53.444;9.902;2023-03-01T15:07:36;21.73;;;12.45;;
3997;SDS011;61314;53.444;9.902;2023-03-01T15:10:04;23.77;;;13.60;;
3997;SDS011;61314;53.444;9.902;2023-03-01T15:12:35;24.92;;;15.02;;
3997;SDS011;61314;53.444;9.902;2023-03-01T15:15:19;24.90;;;14.70;;
3997;SDS011;61314;53.444;9.902;2023-03-01T15:17:50;29.45;;;15.95;;
3997;SDS011;61314;53.444;9.902;2023-03-01T15:20:18;27.55;;;15.15;;
3997;SDS011;61314;53.444;9.902;2023-03-01T15:22:52;21.08;;;13.88;;
3997;SDS011;61314;53.444;9.902;2023-03-01T15:25:21;26.73;;;15.13;;
3997;SDS011;61314;53.444;9.902;2023-03-01T15:27:49;22.20;;;14.55;;
3997;SDS011;61314;53.444;9.902;2023-03-01T15:30:18;22.60;;;12.43;;
3997;SDS011;61314;53.444;9.902;2023-03-01T15:32:47;19.33;;;10.35;;
3997;SDS011;61314;53.444;9.902;2023-03-01T15:38:00;14.40;;;9.38;;
3997;SDS011;61314;53.444;9.902;2023-03-01T15:40:28;13.27;;;10.00;;
3997;SDS011;61314;53.444;9.902;2023-03-01T15:43:00;19.20;;;11.32;;
3997;SDS011;61314;53.444;9.902;2023-03-01T15:45:28;21.30;;;12.23;;
3997;SDS011;61314;53.444;9.902;2023-03-01T15:47:58;23.17;;;13.70;;
3997;SDS011;61314;53.444;9.902;2023-03-01T15:50:30;25.02;;;14.23;;
3997;SDS011;61314;53.444;9.902;2023-03-01T15:52:59;22.15;;;13.50;;
3997;SDS011;61314;53.444;9.902;2023-03-01T15:55:27;26.50;;;12.98;;
3997;SDS011;61314;53.444;9.902;2023-03-01T15:57:59;25.65;;;13.43;;
3997;SDS011;61314;53.444;9.902;2023-03-01T16:00:27;25.27;;;14.35;;
3997;SDS011;61314;53.444;9.902;2023-03-01T16:02:55;22.50;;;14.70;;
3997;SDS011;61314;53.444;9.902;2023-03-01T16:05:24;21.80;;;13.40;;
3997;SDS011;61314;53.444;9.902;2023-03-01T16:07:51;26.00;;;14.98;;
3997;SDS011;61314;53.444;9.902;2023-03-01T16:10:18;22.30;;;14.18;;
3997;SDS011;61314;53.444;9.902;2023-03-01T16:12:46;27.70;;;14.40;;
3997;SDS011;61314;53.444;9.902;2023-03-01T16:15:21;24.33;;;15.30;;
3997;SDS011;61314;53.444;9.902;2023-03-01T16:17:49;25.80;;;14.38;;
3997;SDS011;61314;53.444;9.902;2023-03-01T16:20:16;26.75;;;14.80;;
3997;SDS011;61314;53.444;9.902;2023-03-01T16:22:53;26.00;;;13.70;;
3997;SDS011;61314;53.444;9.902;2023-03-01T16:25:21;26.52;;;13.77;;
3997;SDS011;61314;53.444;9.902;2023-03-01T16:27:49;23.35;;;14.80;;
3997;SDS011;61314;53.444;9.902;2023-03-01T16:30:17;24.33;;;13.45;;
3997;SDS011;61314;53.444;9.902;2023-03-01T16:32:44;25.52;;;13.43;;
3997;SDS011;61314;53.444;9.902;2023-03-01T16:35:14;24.40;;;13.60;;
3997;SDS011;61314;53.444;9.902;2023-03-01T16:37:41;20.88;;;12.95;;
3997;SDS011;61314;53.444;9.902;2023-03-01T16:40:18;24.38;;;11.50;;
3997;SDS011;61314;53.444;9.902;2023-03-01T16:42:47;23.88;;;14.93;;
3997;SDS011;61314;53.444;9.902;2023-03-01T16:45:14;27.40;;;14.50;;